Time;durP1;ratioP1;P1;durP2;ratioP2;P2;SDS_P1;SDS_P2;PMS_P1;PMS_P2;Temp;Humidity;BMP_temperature;BMP_pressure;BME280_temperature;BME280_humidity;BME280_pressure;Samples;Min_cycle;Max_cycle;Signal;HPM_P1;HPM_P2
2022/06/25 00:02:01;;;;;;;2.28;0.65;;;18.60;56.10;;;;;;4961315;28;20386;-75
2022/06/25 00:07:12;;;;;;;1.95;0.60;;;18.50;56.10;;;;;;4974189;28;20038;-75
2022/06/25 00:09:37;;;;;;;3.30;1.23;;;18.50;56.10;;;;;;4970417;28;20494;-75
2022/06/25 00:14:49;;;;;;;2.75;0.73;;;18.40;56.10;;;;;;4967035;28;20488;-75
2022/06/25 00:17:14;;;;;;;2.60;1.15;;;18.30;55.90;;;;;;4966510;28;20023;-75
2022/06/25 00:19:40;;;;;;;2.53;0.43;;;18.30;56.00;;;;;;4965458;28;20043;-75
2022/06/25 00:22:06;;;;;;;1.95;0.50;;;18.30;56.20;;;;;;4968066;28;20027;-75
2022/06/25 00:24:32;;;;;;;2.97;0.75;;;18.30;56.20;;;;;;4943654;28;20551;-75
2022/06/25 00:26:58;;;;;;;3.80;1.13;;;18.20;56.10;;;;;;4969520;28;20473;-74
2022/06/25 00:29:23;;;;;;;3.05;0.75;;;18.10;55.90;;;;;;4963441;28;20089;-75
2022/06/25 00:31:49;;;;;;;3.08;1.00;;;18.20;56.20;;;;;;4958619;28;20042;-75
2022/06/25 00:34:15;;;;;;;3.42;0.98;;;18.10;56.00;;;;;;4949309;28;20105;-75
2022/06/25 00:36:41;;;;;;;3.00;0.93;;;18.10;56.10;;;;;;4964928;28;20437;-75
2022/06/25 00:39:07;;;;;;;1.63;1.05;;;18.00;56.00;;;;;;4965633;28;20022;-73
2022/06/25 00:41:33;;;;;;;5.47;0.75;;;17.90;55.90;;;;;;4960515;28;20132;-73
2022/06/25 00:43:59;;;;;;;3.55;1.38;;;17.90;55.90;;;;;;4954751;28;20062;-73
2022/06/25 00:46:24;;;;;;;2.05;0.50;;;17.90;56.00;;;;;;4981956;28;20097;-73
2022/06/25 00:48:50;;;;;;;4.57;0.70;;;17.80;55.90;;;;;;4966970;28;20034;-73
2022/06/25 00:51:18;;;;;;;2.55;0.90;;;17.80;55.90;;;;;;4966099;28;20034;-73
2022/06/25 00:53:46;;;;;;;2.10;0.68;;;17.70;55.80;;;;;;4962256;28;20112;-73
2022/06/25 00:56:14;;;;;;;6.75;1.35;;;17.70;55.90;;;;;;4956167;28;20486;-73
2022/06/25 00:58:44;;;;;;;3.25;0.90;;;17.70;56.10;;;;;;4947617;28;20027;-73
2022/06/25 01:01:13;;;;;;;1.48;0.77;;;17.60;55.90;;;;;;4966461;28;20046;-75
2022/06/25 01:03:39;;;;;;;2.20;0.77;;;17.60;55.90;;;;;;4947983;28;20027;-74
2022/06/25 01:06:06;;;;;;;3.70;1.52;;;17.50;55.80;;;;;;4965588;28;20042;-74
2022/06/25 01:08:34;;;;;;;3.20;1.10;;;17.50;55.90;;;;;;4948930;28;20035;-75
2022/06/25 01:11:00;;;;;;;2.13;0.70;;;17.50;55.90;;;;;;4947250;28;20539;-74
2022/06/25 01:13:27;;;;;;;4.38;0.90;;;17.50;56.00;;;;;;4961454;28;20243;-75
2022/06/25 01:15:53;;;;;;;5.47;2.08;;;17.40;55.90;;;;;;4956998;28;20035;-74
2022/06/25 01:18:20;;;;;;;3.60;1.02;;;17.40;56.00;;;;;;4931323;28;20058;-74
2022/06/25 01:20:46;;;;;;;4.10;0.85;;;17.30;55.80;;;;;;4952811;28;20058;-74
2022/06/25 01:23:13;;;;;;;5.15;0.95;;;17.30;55.90;;;;;;4948623;28;20045;-75
2022/06/25 01:25:40;;;;;;;3.20;0.63;;;17.30;55.90;;;;;;4970176;28;20051;-75
2022/06/25 01:28:07;;;;;;;2.97;1.20;;;17.20;55.80;;;;;;4963195;28;20283;-75
2022/06/25 01:30:35;;;;;;;3.75;1.27;;;17.20;55.90;;;;;;4965513;28;20041;-75
2022/06/25 01:33:06;;;;;;;1.77;0.50;;;17.20;55.90;;;;;;4962854;28;20041;-75
2022/06/25 01:35:33;;;;;;;3.10;0.82;;;17.10;55.80;;;;;;4960040;28;20093;-75
2022/06/25 01:38:04;;;;;;;3.53;1.48;;;17.10;55.80;;;;;;4974519;28;20072;-75
2022/06/25 01:40:34;;;;;;;2.78;0.70;;;17.10;55.90;;;;;;4959622;28;20401;-75
2022/06/25 01:43:01;;;;;;;3.47;0.90;;;17.00;55.70;;;;;;4959451;28;20163;-75
2022/06/25 01:45:37;;;;;;;1.42;0.80;;;17.00;55.80;;;;;;4965441;28;20073;-74
2022/06/25 01:48:05;;;;;;;5.50;2.00;;;17.00;55.90;;;;;;4959565;28;20543;-74
2022/06/25 01:50:31;;;;;;;2.90;0.70;;;16.90;55.70;;;;;;4950673;28;20061;-75
2022/06/25 01:52:57;;;;;;;2.65;1.10;;;16.90;55.80;;;;;;4956255;28;20039;-74
2022/06/25 01:55:24;;;;;;;3.63;0.88;;;16.90;55.90;;;;;;4963169;28;20043;-74
2022/06/25 01:57:50;;;;;;;5.80;0.95;;;16.80;55.70;;;;;;4969030;28;20034;-75
2022/06/25 02:00:24;;;;;;;2.88;0.93;;;16.80;55.80;;;;;;4951632;28;20031;-74
2022/06/25 02:02:54;;;;;;;4.30;1.13;;;16.70;56.00;;;;;;4959947;28;20026;-73
2022/06/25 02:05:56;;;;;;;3.05;0.85;;;16.70;55.70;;;;;;4947877;28;20440;-75
2022/06/25 02:08:10;;;;;;;1.88;0.43;;;16.70;55.80;;;;;;4946721;28;20043;-75
2022/06/25 02:10:36;;;;;;;1.85;0.80;;;16.60;55.60;;;;;;4965448;28;20050;-74
2022/06/25 02:13:03;;;;;;;2.72;0.75;;;16.60;55.70;;;;;;4976325;28;20019;-74
2022/06/25 02:15:29;;;;;;;3.15;1.15;;;16.60;55.80;;;;;;4947857;28;20035;-74
2022/06/25 02:17:55;;;;;;;2.65;0.70;;;16.60;55.90;;;;;;4975047;28;20027;-74
2022/06/25 02:20:21;;;;;;;1.85;0.93;;;16.50;55.70;;;;;;4934619;28;20034;-74
2022/06/25 02:22:49;;;;;;;4.45;0.90;;;16.50;55.80;;;;;;4949482;28;20053;-74
2022/06/25 02:25:15;;;;;;;4.50;2.53;;;16.50;55.90;;;;;;4962122;28;20200;-74
2022/06/25 02:27:41;;;;;;;2.50;0.80;;;16.50;55.90;;;;;;4966074;28;20141;-75
2022/06/25 02:30:07;;;;;;;2.15;0.60;;;16.40;55.80;;;;;;4958019;28;20073;-75
2022/06/25 02:32:34;;;;;;;5.10;1.02;;;16.40;55.80;;;;;;4968349;28;20035;-75
2022/06/25 02:35:01;;;;;;;2.20;1.00;;;16.40;55.90;;;;;;4945992;28;20454;-75
2022/06/25 02:37:27;;;;;;;4.55;0.90;;;16.40;56.00;;;;;;4968111;28;20054;-74
2022/06/25 02:39:54;;;;;;;3.22;1.00;;;16.40;56.00;;;;;;4981598;28;20031;-75
2022/06/25 02:42:20;;;;;;;2.80;0.88;;;16.30;55.80;;;;;;4944290;28;20031;-75
2022/06/25 02:44:46;;;;;;;6.22;1.35;;;16.30;55.90;;;;;;4950809;28;20035;-74
2022/06/25 02:47:13;;;;;;;3.70;1.75;;;16.30;55.90;;;;;;4948415;28;20142;-75
2022/06/25 02:49:59;;;;;;;3.25;0.88;;;16.20;55.80;;;;;;4967987;28;20035;-75
2022/06/25 02:52:25;;;;;;;3.00;1.30;;;16.20;55.80;;;;;;4967878;28;20038;-75
2022/06/25 02:54:51;;;;;;;4.10;0.98;;;16.20;55.80;;;;;;4946503;28;20026;-75
2022/06/25 03:00:07;;;;;;;2.28;1.10;;;16.10;55.80;;;;;;4968049;28;20634;-75
2022/06/25 03:02:33;;;;;;;4.30;1.15;;;16.10;55.80;;;;;;4966587;28;20141;-75
2022/06/25 03:04:59;;;;;;;4.90;1.20;;;16.10;55.90;;;;;;4965363;28;20744;-76
2022/06/25 03:07:25;;;;;;;3.08;0.77;;;16.00;55.80;;;;;;4964098;28;20071;-75
2022/06/25 03:09:51;;;;;;;2.00;0.77;;;16.00;55.90;;;;;;4965198;28;20034;-74
2022/06/25 03:12:18;;;;;;;3.03;0.90;;;16.00;55.90;;;;;;4949145;28;20090;-75
2022/06/25 03:14:54;;;;;;;4.40;0.82;;;16.00;56.50;;;;;;4949642;28;20026;-74
2022/06/25 03:17:21;;;;;;;6.55;1.15;;;16.00;56.00;;;;;;4958985;28;20030;-75
2022/06/25 03:20:06;;;;;;;4.35;1.50;;;15.90;55.90;;;;;;4964605;28;20127;-75
2022/06/25 03:22:38;;;;;;;6.18;2.00;;;15.90;55.90;;;;;;4950858;28;20030;-75
2022/06/25 03:25:06;;;;;;;2.78;0.80;;;15.90;55.90;;;;;;4927369;29;20510;-75
2022/06/25 03:27:32;;;;;;;4.22;1.08;;;15.90;56.00;;;;;;4943900;28;20023;-74
2022/06/25 03:30:07;;;;;;;5.20;1.00;;;15.90;56.00;;;;;;4944189;28;20059;-75
2022/06/25 03:32:35;;;;;;;4.10;1.10;;;15.80;55.90;;;;;;4962291;28;20031;-75
2022/06/25 03:35:20;;;;;;;3.58;0.82;;;15.80;55.90;;;;;;4924016;29;20490;-74
2022/06/25 03:38:01;;;;;;;3.55;1.08;;;15.80;56.00;;;;;;4956316;28;20031;-73
2022/06/25 03:40:27;;;;;;;4.70;1.20;;;15.80;56.00;;;;;;4957300;28;20035;-74
2022/06/25 03:42:53;;;;;;;4.65;1.30;;;15.80;56.10;;;;;;4930626;28;20050;-74
2022/06/25 03:45:19;;;;;;;4.47;1.50;;;15.80;56.10;;;;;;4930257;29;20094;-74
2022/06/25 03:47:50;;;;;;;7.05;1.63;;;15.70;56.00;;;;;;4946629;29;20031;-74
2022/06/25 03:50:18;;;;;;;3.63;1.70;;;15.70;56.00;;;;;;4945110;28;20391;-73
2022/06/25 03:52:45;;;;;;;5.65;1.23;;;15.70;56.10;;;;;;4962772;28;20093;-74
2022/06/25 03:55:13;;;;;;;2.00;0.95;;;15.60;55.90;;;;;;4947142;28;20083;-74
2022/06/25 03:57:39;;;;;;;7.40;1.23;;;15.60;55.90;;;;;;4951328;28;20443;-74
2022/06/25 04:00:15;;;;;;;3.22;1.05;;;15.60;56.00;;;;;;4947536;29;20035;-74
2022/06/25 04:03:00;;;;;;;2.08;1.20;;;15.60;56.10;;;;;;4948414;28;20031;-74
2022/06/25 04:05:30;;;;;;;4.32;1.00;;;15.60;56.10;;;;;;4946127;28;20704;-74
2022/06/25 04:08:18;;;;;;;4.95;2.20;;;15.50;56.00;;;;;;4948189;29;20035;-75
2022/06/25 04:10:46;;;;;;;5.35;1.17;;;15.50;56.00;;;;;;4922882;29;20032;-75
2022/06/25 04:13:12;;;;;;;5.85;1.10;;;15.50;56.00;;;;;;4949599;28;20027;-74
2022/06/25 04:15:38;;;;;;;6.78;2.10;;;15.50;56.10;;;;;;4935150;29;20601;-74
2022/06/25 04:18:04;;;;;;;4.57;1.25;;;15.50;56.10;;;;;;4949383;28;20039;-74
2022/06/25 04:20:32;;;;;;;5.13;1.60;;;15.50;56.10;;;;;;4939624;28;20036;-74
2022/06/25 04:22:59;;;;;;;5.60;1.88;;;15.50;56.20;;;;;;4946580;28;20036;-74
2022/06/25 04:25:25;;;;;;;6.03;1.48;;;15.50;56.20;;;;;;4939781;29;20175;-74
2022/06/25 04:30:36;;;;;;;4.07;1.13;;;15.50;56.30;;;;;;4946695;28;20031;-75
2022/06/25 04:33:01;;;;;;;4.00;1.23;;;15.40;56.10;;;;;;4950702;28;20058;-74
2022/06/25 04:35:43;;;;;;;4.70;1.73;;;15.40;56.10;;;;;;4962122;28;20035;-75
2022/06/25 04:38:28;;;;;;;3.50;1.30;;;15.50;56.30;;;;;;4964822;28;20510;-75
2022/06/25 04:40:54;;;;;;;5.03;1.13;;;15.40;56.10;;;;;;4940371;29;20074;-75
2022/06/25 04:43:21;;;;;;;5.80;1.90;;;15.40;56.10;;;;;;4953468;28;20027;-75
2022/06/25 04:45:47;;;;;;;3.63;1.17;;;15.50;56.30;;;;;;4961887;28;20710;-75
2022/06/25 04:48:21;;;;;;;4.25;1.95;;;15.50;56.20;;;;;;4956847;28;20039;-75
2022/06/25 04:51:07;;;;;;;3.60;1.08;;;15.50;56.20;;;;;;4945439;28;20042;-74
2022/06/25 04:53:54;;;;;;;8.68;2.63;;;15.50;56.20;;;;;;4944248;28;20083;-74
2022/06/25 04:56:19;;;;;;;3.28;1.17;;;15.50;56.20;;;;;;4938249;29;20038;-75
2022/06/25 04:58:45;;;;;;;4.63;1.42;;;15.50;56.10;;;;;;4945148;28;20035;-75
2022/06/25 05:01:31;;;;;;;5.78;1.10;;;15.50;56.20;;;;;;4925082;28;20063;-74
2022/06/25 05:03:57;;;;;;;4.63;1.45;;;15.60;56.30;;;;;;4945806;28;20085;-74
2022/06/25 05:06:23;;;;;;;4.05;1.02;;;15.60;56.30;;;;;;4961554;28;20383;-75
2022/06/25 05:08:49;;;;;;;4.20;1.10;;;15.60;56.30;;;;;;4929074;29;20031;-74
2022/06/25 05:11:15;;;;;;;4.07;1.20;;;15.70;56.40;;;;;;4927368;29;20031;-74
2022/06/25 05:13:41;;;;;;;2.65;1.45;;;15.70;56.30;;;;;;4961007;28;20883;-75
2022/06/25 05:16:07;;;;;;;5.20;1.63;;;15.80;56.40;;;;;;4953338;28;20031;-74
2022/06/25 05:18:33;;;;;;;4.43;1.20;;;15.80;56.30;;;;;;4946309;28;20035;-74
2022/06/25 05:20:59;;;;;;;4.10;1.38;;;15.90;56.40;;;;;;4943870;28;20411;-74
2022/06/25 05:23:26;;;;;;;6.28;1.20;;;16.00;56.50;;;;;;4960343;28;20042;-75
2022/06/25 05:25:52;;;;;;;4.25;1.73;;;16.00;56.40;;;;;;4941602;28;20216;-76
2022/06/25 05:28:18;;;;;;;5.65;1.80;;;16.10;56.50;;;;;;4943889;28;20043;-75
2022/06/25 05:30:44;;;;;;;3.63;1.40;;;16.20;56.50;;;;;;4942729;28;20172;-75
2022/06/25 05:33:10;;;;;;;2.65;1.40;;;16.30;56.50;;;;;;4961656;28;20033;-76
2022/06/25 05:35:36;;;;;;;2.13;1.10;;;16.40;56.60;;;;;;4960407;28;20109;-75
2022/06/25 05:38:02;;;;;;;7.55;2.58;;;16.60;56.70;;;;;;4945825;29;20063;-74
2022/06/25 05:40:28;;;;;;;7.43;1.40;;;16.80;56.80;;;;;;4943119;28;20035;-76
2022/06/25 05:42:54;;;;;;;7.18;1.73;;;17.10;57.00;;;;;;4945942;28;20031;-75
2022/06/25 05:45:20;;;;;;;5.00;1.70;;;17.30;57.00;;;;;;4946658;28;20279;-77
2022/06/25 05:47:46;;;;;;;4.90;1.77;;;17.50;56.90;;;;;;4945116;28;20027;-75
2022/06/25 05:50:11;;;;;;;4.10;1.52;;;17.80;57.00;;;;;;4945325;29;20038;-75
2022/06/25 05:52:37;;;;;;;8.25;2.25;;;18.00;56.90;;;;;;4943032;28;20140;-75
2022/06/25 05:55:04;;;;;;;9.52;2.40;;;18.40;57.00;;;;;;4936959;29;20074;-75
2022/06/25 05:57:30;;;;;;;10.38;2.03;;;18.60;56.40;;;;;;4950570;28;20031;-75
2022/06/25 05:59:56;;;;;;;5.07;1.95;;;18.70;56.10;;;;;;4942448;28;20486;-76
2022/06/25 06:02:23;;;;;;;5.72;1.85;;;18.80;55.80;;;;;;4946033;28;20137;-81
2022/06/25 06:04:48;;;;;;;9.75;1.65;;;18.90;55.60;;;;;;4945489;28;20102;-79
2022/06/25 06:07:14;;;;;;;6.75;1.42;;;19.00;55.40;;;;;;4927737;29;20125;-79
2022/06/25 06:09:40;;;;;;;9.65;1.80;;;19.10;55.40;;;;;;4944331;28;20062;-74
2022/06/25 06:12:06;;;;;;;8.77;1.92;;;19.20;55.30;;;;;;4943620;28;20411;-75
2022/06/25 06:14:32;;;;;;;7.30;2.28;;;19.30;55.10;;;;;;4959632;28;20046;-75
2022/06/25 06:16:58;;;;;;;11.23;3.35;;;19.40;54.90;;;;;;4952942;28;20031;-73
2022/06/25 06:19:24;;;;;;;6.78;2.72;;;19.50;54.60;;;;;;4950262;28;20110;-75
2022/06/25 06:21:50;;;;;;;8.38;2.15;;;19.60;54.50;;;;;;4952745;28;20070;-74
2022/06/25 06:24:16;;;;;;;7.38;2.40;;;19.70;54.30;;;;;;4966201;29;20027;-75
2022/06/25 06:26:41;;;;;;;8.40;3.22;;;19.90;54.20;;;;;;4964108;28;20033;-74
2022/06/25 06:29:07;;;;;;;7.13;2.25;;;19.90;53.70;;;;;;4955707;28;20027;-73
2022/06/25 06:31:33;;;;;;;6.45;1.80;;;19.90;53.50;;;;;;4951401;28;20031;-79
2022/06/25 06:33:59;;;;;;;8.55;2.28;;;19.90;53.30;;;;;;4928998;28;20670;-76
2022/06/25 06:36:25;;;;;;;10.93;3.05;;;20.10;53.30;;;;;;4938726;28;20211;-76
2022/06/25 06:38:51;;;;;;;7.18;2.78;;;20.40;53.00;;;;;;4943505;28;20066;-76
2022/06/25 06:41:19;;;;;;;8.57;2.33;;;21.00;52.90;;;;;;4944659;28;20223;-76
2022/06/25 06:43:45;;;;;;;6.10;2.90;;;21.50;52.50;;;;;;4928361;28;20031;-75
2022/06/25 06:46:13;;;;;;;7.50;2.85;;;22.00;52.10;;;;;;4943457;28;20110;-75
2022/06/25 06:48:39;;;;;;;5.75;2.00;;;22.60;52.00;;;;;;4943966;28;20425;-76
2022/06/25 06:51:05;;;;;;;7.63;2.20;;;23.00;51.50;;;;;;4946743;28;20042;-75
2022/06/25 06:53:32;;;;;;;9.07;2.75;;;23.20;51.20;;;;;;4943964;28;20051;-76
2022/06/25 06:55:59;;;;;;;5.43;2.47;;;23.20;50.90;;;;;;4942576;28;20062;-76
2022/06/25 06:58:25;;;;;;;6.97;2.63;;;23.10;50.80;;;;;;4944207;28;20422;-78
2022/06/25 07:00:50;;;;;;;8.38;2.50;;;22.80;50.80;;;;;;4936183;28;20043;-74
2022/06/25 07:03:16;;;;;;;5.80;1.92;;;22.40;50.70;;;;;;4943341;28;20028;-75
2022/06/25 07:05:42;;;;;;;9.65;2.78;;;22.10;50.70;;;;;;4945935;28;20153;-76
2022/06/25 07:08:19;;;;;;;9.25;2.38;;;22.00;50.90;;;;;;4944964;28;20114;-76
2022/06/25 07:10:45;;;;;;;9.70;2.33;;;22.00;51.20;;;;;;4931528;28;20126;-76
2022/06/25 07:13:11;;;;;;;12.40;2.60;;;22.50;51.50;;;;;;4944185;29;20482;-76
2022/06/25 07:15:36;;;;;;;6.75;2.42;;;23.10;51.40;;;;;;4945769;28;20038;-76
2022/06/25 07:18:02;;;;;;;6.13;1.90;;;23.60;51.20;;;;;;4942036;28;20087;-76
2022/06/25 07:20:28;;;;;;;9.00;2.40;;;24.30;51.30;;;;;;4947453;28;20041;-76
2022/06/25 07:22:54;;;;;;;8.52;3.20;;;24.80;51.30;;;;;;4948356;28;20028;-75
2022/06/25 07:25:20;;;;;;;6.53;2.03;;;25.10;51.10;;;;;;4949190;28;20262;-76
2022/06/25 07:27:48;;;;;;;7.32;2.20;;;25.40;50.80;;;;;;4966773;28;20370;-77
2022/06/25 07:30:15;;;;;;;8.82;2.65;;;25.60;50.40;;;;;;4963053;28;20031;-77
2022/06/25 07:32:40;;;;;;;5.85;2.55;;;25.90;50.20;;;;;;4966044;28;20035;-77
2022/06/25 07:35:07;;;;;;;6.93;2.33;;;26.20;49.50;;;;;;4959995;28;20030;-76
2022/06/25 07:37:33;;;;;;;6.53;2.80;;;26.80;48.40;;;;;;4950453;28;20142;-77
2022/06/25 07:40:00;;;;;;;10.98;3.67;;;27.10;47.20;;;;;;4950884;28;20047;-77
2022/06/25 07:42:26;;;;;;;5.35;2.00;;;27.30;46.50;;;;;;4962400;28;20228;-78
2022/06/25 07:44:52;;;;;;;5.32;1.98;;;27.50;46.00;;;;;;4949251;28;20042;-77
2022/06/25 07:47:18;;;;;;;5.57;2.10;;;27.80;45.50;;;;;;4966474;28;20051;-77
2022/06/25 07:52:29;;;;;;;10.20;2.92;;;28.40;44.20;;;;;;4962780;28;20046;-77
2022/06/25 07:54:55;;;;;;;6.47;2.45;;;28.90;43.60;;;;;;4963521;28;20027;-76
2022/06/25 07:57:21;;;;;;;7.00;2.97;;;29.20;42.80;;;;;;4966121;28;20089;-77
2022/06/25 07:59:47;;;;;;;5.68;2.20;;;29.40;42.10;;;;;;4961839;28;20023;-73
2022/06/25 08:02:12;;;;;;;5.68;2.17;;;29.40;41.70;;;;;;4965261;28;20039;-75
2022/06/25 08:04:38;;;;;;;6.25;3.47;;;29.10;41.50;;;;;;4966663;28;20039;-76
2022/06/25 08:07:04;;;;;;;4.80;2.00;;;28.60;42.20;;;;;;4964814;28;20054;-77
2022/06/25 08:09:30;;;;;;;8.20;2.53;;;28.10;42.90;;;;;;4946517;28;20039;-74
2022/06/25 08:11:56;;;;;;;10.00;2.53;;;27.70;43.50;;;;;;4964736;28;20031;-77
2022/06/25 08:14:22;;;;;;;9.02;2.85;;;27.30;44.00;;;;;;4980873;28;20050;-77
2022/06/25 08:16:48;;;;;;;8.38;2.80;;;27.10;45.10;;;;;;4965457;28;20126;-76
2022/06/25 08:19:14;;;;;;;6.53;2.47;;;26.90;44.80;;;;;;4976764;28;20600;-76
2022/06/25 08:21:40;;;;;;;8.07;2.35;;;26.70;44.80;;;;;;4947105;28;20069;-77
2022/06/25 08:24:06;;;;;;;9.07;3.03;;;26.60;44.90;;;;;;4903363;28;1095304;-76
2022/06/25 08:26:32;;;;;;;9.85;3.70;;;26.40;44.80;;;;;;4962496;28;20361;-77
2022/06/25 08:28:57;;;;;;;5.78;1.88;;;26.40;44.90;;;;;;4952022;28;20027;-76
2022/06/25 08:31:24;;;;;;;5.90;2.72;;;26.30;44.90;;;;;;4945633;28;20030;-77
2022/06/25 08:33:50;;;;;;;6.40;2.10;;;26.20;44.90;;;;;;4967508;28;20506;-76
2022/06/25 08:36:15;;;;;;;4.45;1.90;;;26.20;44.90;;;;;;4943560;29;20043;-76
2022/06/25 08:38:41;;;;;;;4.40;1.88;;;26.10;44.80;;;;;;4964695;28;20074;-76
2022/06/25 08:41:08;;;;;;;5.15;1.42;;;26.10;44.80;;;;;;4965518;28;20469;-77
2022/06/25 08:43:34;;;;;;;4.47;1.55;;;26.10;44.60;;;;;;4966877;28;20063;-76
2022/06/25 08:46:00;;;;;;;6.22;1.63;;;26.10;44.40;;;;;;4967243;28;20337;-76
2022/06/25 08:48:34;;;;;;;3.55;1.92;;;26.10;44.20;;;;;;4962572;28;20035;-76
2022/06/25 08:51:01;;;;;;;4.43;1.23;;;26.10;43.70;;;;;;4949504;28;20043;-76
2022/06/25 08:53:32;;;;;;;2.75;1.25;;;26.20;43.70;;;;;;4965686;28;20010;-76
2022/06/25 08:56:00;;;;;;;2.80;1.15;;;26.30;43.40;;;;;;4960423;28;20081;-76
2022/06/25 08:58:26;;;;;;;3.70;0.93;;;26.40;43.40;;;;;;4966713;28;20446;-76
2022/06/25 09:00:52;;;;;;;4.72;1.50;;;26.50;43.10;;;;;;4964816;28;20097;-76
2022/06/25 09:03:18;;;;;;;3.97;1.52;;;26.60;42.80;;;;;;4967489;28;20035;-76
2022/06/25 09:05:44;;;;;;;4.97;1.58;;;26.70;42.70;;;;;;4964588;28;20047;-77
2022/06/25 09:08:15;;;;;;;4.40;1.50;;;26.70;43.40;;;;;;4964983;28;20037;-76
2022/06/25 09:10:44;;;;;;;3.20;1.50;;;26.70;42.80;;;;;;4966035;28;20038;-76
2022/06/25 09:13:12;;;;;;;5.55;1.30;;;26.70;42.80;;;;;;4956548;28;20054;-75
2022/06/25 09:15:45;;;;;;;3.67;1.10;;;26.90;42.80;;;;;;4948682;28;20038;-76
2022/06/25 09:18:21;;;;;;;2.72;1.10;;;27.20;42.70;;;;;;4965688;28;20062;-76
2022/06/25 09:20:59;;;;;;;3.00;1.40;;;27.50;42.40;;;;;;4964218;28;20035;-76
2022/06/25 09:23:30;;;;;;;3.33;1.30;;;27.70;42.10;;;;;;4964552;28;20093;-75
2022/06/25 09:26:14;;;;;;;2.58;1.33;;;27.80;42.10;;;;;;4962781;28;20051;-76
2022/06/25 09:28:41;;;;;;;4.28;1.70;;;27.90;41.80;;;;;;4958107;28;20031;-76
2022/06/25 09:31:08;;;;;;;2.47;1.13;;;27.80;42.00;;;;;;4965221;28;20333;-76
2022/06/25 09:33:36;;;;;;;3.05;1.55;;;27.80;42.10;;;;;;4966051;28;20031;-76
2022/06/25 09:36:03;;;;;;;2.90;1.48;;;27.70;42.10;;;;;;4966567;28;20046;-76
2022/06/25 09:38:30;;;;;;;3.28;1.52;;;27.70;42.20;;;;;;4949181;28;20042;-76
2022/06/25 09:40:59;;;;;;;3.17;1.33;;;27.60;42.40;;;;;;4964210;28;20043;-76
2022/06/25 09:43:27;;;;;;;3.97;1.20;;;27.50;42.30;;;;;;4966183;28;20031;-76
2022/06/25 09:46:02;;;;;;;4.00;1.67;;;27.50;42.50;;;;;;4952340;28;20038;-76
2022/06/25 09:48:30;;;;;;;2.08;1.02;;;27.50;42.40;;;;;;4965773;28;20536;-76
2022/06/25 09:51:09;;;;;;;2.85;1.30;;;27.70;42.10;;;;;;4964730;28;20039;-76
2022/06/25 09:53:46;;;;;;;2.55;1.10;;;27.70;41.80;;;;;;4963342;28;20046;-75
2022/06/25 09:56:14;;;;;;;3.83;1.25;;;27.70;41.70;;;;;;4946169;28;20038;-75
2022/06/25 09:58:42;;;;;;;2.00;0.90;;;27.60;41.90;;;;;;4964821;28;20074;-76
2022/06/25 10:01:09;;;;;;;3.78;1.88;;;27.50;42.00;;;;;;4980573;28;20035;-76
2022/06/25 10:03:36;;;;;;;3.00;1.52;;;27.50;42.10;;;;;;4964144;28;20081;-76
2022/06/25 10:06:03;;;;;;;3.83;1.70;;;27.70;42.00;;;;;;4964361;28;20048;-77
2022/06/25 10:08:30;;;;;;;4.65;1.80;;;27.80;41.80;;;;;;4962038;28;20035;-77
2022/06/25 10:10:57;;;;;;;3.80;1.65;;;27.90;41.70;;;;;;4962200;28;20076;-76
2022/06/25 10:13:24;;;;;;;3.83;1.23;;;28.00;41.70;;;;;;4946135;28;20019;-76
2022/06/25 10:15:51;;;;;;;4.43;1.83;;;28.00;41.80;;;;;;4963608;28;20109;-77
2022/06/25 10:18:18;;;;;;;2.60;1.30;;;28.20;41.80;;;;;;4939532;28;20041;-76
2022/06/25 10:20:45;;;;;;;3.20;1.60;;;28.50;41.60;;;;;;4962307;28;20439;-76
2022/06/25 10:23:13;;;;;;;3.53;1.85;;;28.70;41.30;;;;;;4963229;28;20038;-77
2022/06/25 10:25:39;;;;;;;3.15;1.27;;;28.70;41.20;;;;;;4958762;28;20058;-76
2022/06/25 10:28:08;;;;;;;3.63;1.42;;;28.50;41.30;;;;;;4960357;28;20115;-77
2022/06/25 10:30:35;;;;;;;3.50;1.02;;;28.50;41.40;;;;;;4940164;28;20033;-76
2022/06/25 10:33:02;;;;;;;3.70;2.05;;;28.40;41.50;;;;;;4979074;28;20058;-78
2022/06/25 10:35:32;;;;;;;3.22;1.83;;;28.40;41.70;;;;;;4963933;28;20464;-80
2022/06/25 10:37:59;;;;;;;4.43;1.50;;;28.40;41.70;;;;;;4965789;28;20061;-78
2022/06/25 10:40:25;;;;;;;4.22;1.25;;;28.70;42.10;;;;;;4949562;28;20074;-78
2022/06/25 10:43:00;;;;;;;3.75;1.30;;;29.00;41.20;;;;;;4962288;28;20352;-81
2022/06/25 10:45:26;;;;;;;3.60;1.10;;;29.30;40.80;;;;;;4965021;28;20125;-80
2022/06/25 10:47:54;;;;;;;4.35;1.30;;;29.70;40.70;;;;;;4959626;28;20175;-78
2022/06/25 10:50:23;;;;;;;6.13;2.30;;;29.90;40.40;;;;;;4960340;28;20027;-79
2022/06/25 10:53:07;;;;;;;7.22;1.88;;;29.90;40.00;;;;;;4965130;28;20398;-79
2022/06/25 10:55:49;;;;;;;4.72;1.90;;;29.60;39.60;;;;;;4924597;28;20027;-79
2022/06/25 10:58:26;;;;;;;6.10;2.15;;;29.00;39.70;;;;;;4967470;28;20033;-79
2022/06/25 11:00:58;;;;;;;4.68;1.63;;;28.40;40.10;;;;;;4951286;28;20089;-79
2022/06/25 11:03:28;;;;;;;5.70;2.22;;;28.00;40.70;;;;;;4965101;28;20034;-79
2022/06/25 11:05:59;;;;;;;5.75;2.00;;;27.70;41.10;;;;;;4963325;28;20039;-78
2022/06/25 11:08:35;;;;;;;8.88;2.13;;;27.50;41.40;;;;;;4964504;28;20520;-78
2022/06/25 11:11:00;;;;;;;7.22;2.03;;;27.50;41.40;;;;;;4949030;28;20039;-82
2022/06/25 11:13:27;;;;;;;4.10;2.38;;;27.60;41.20;;;;;;4974032;28;20522;-79
2022/06/25 11:15:53;;;;;;;7.72;2.45;;;27.40;41.10;;;;;;4956631;28;20493;-80
2022/06/25 11:18:19;;;;;;;7.93;2.22;;;27.40;41.20;;;;;;4965050;28;20108;-79
2022/06/25 11:20:46;;;;;;;6.47;2.20;;;27.50;40.90;;;;;;4976020;28;20035;-81
2022/06/25 11:23:14;;;;;;;4.97;2.20;;;27.60;41.00;;;;;;4948918;28;20484;-76
2022/06/25 11:28:48;;;;;;;4.82;1.73;;;27.70;40.40;;;;;;4952388;28;20131;-78
2022/06/25 11:31:19;;;;;;;5.25;1.77;;;27.90;40.20;;;;;;4963182;28;20045;-77
2022/06/25 11:33:46;;;;;;;6.00;1.75;;;28.10;39.80;;;;;;4960271;28;20074;-78
2022/06/25 11:36:12;;;;;;;7.53;2.28;;;28.20;39.60;;;;;;4966357;28;20027;-78
2022/06/25 11:38:44;;;;;;;6.97;2.42;;;28.40;39.40;;;;;;4955102;28;20050;-78
2022/06/25 11:41:23;;;;;;;5.47;2.10;;;28.80;39.00;;;;;;4973096;28;20073;-77
2022/06/25 11:43:49;;;;;;;6.45;1.95;;;28.90;38.40;;;;;;4966873;28;20039;-83
2022/06/25 11:46:19;;;;;;;6.72;1.80;;;28.80;38.50;;;;;;4965442;28;20043;-79
2022/06/25 11:48:50;;;;;;;5.13;2.13;;;28.40;38.40;;;;;;4936637;28;20031;-79
2022/06/25 11:51:24;;;;;;;5.80;1.75;;;28.10;38.60;;;;;;4966718;28;20038;-83
2022/06/25 11:53:51;;;;;;;4.93;1.73;;;27.80;38.70;;;;;;4962065;28;20031;-77
2022/06/25 11:56:17;;;;;;;3.58;1.83;;;27.80;38.80;;;;;;4963433;28;20093;-76
2022/06/25 11:58:44;;;;;;;6.35;1.70;;;27.90;38.80;;;;;;4962874;28;20054;-76
2022/06/25 12:01:11;;;;;;;6.63;1.75;;;28.00;38.60;;;;;;4967796;28;20098;-79
2022/06/25 12:03:37;;;;;;;4.88;2.03;;;28.30;38.50;;;;;;4940574;28;20425;-79
2022/06/25 12:06:04;;;;;;;4.63;2.30;;;28.60;38.30;;;;;;4982377;28;20533;-80
2022/06/25 12:08:31;;;;;;;5.65;1.60;;;28.80;37.90;;;;;;4951924;28;20030;-79
2022/06/25 12:10:58;;;;;;;4.38;1.70;;;28.60;37.70;;;;;;4964702;28;20488;-81
2022/06/25 12:13:32;;;;;;;8.32;1.60;;;28.30;37.90;;;;;;4963107;28;20246;-83
2022/06/25 12:15:59;;;;;;;5.53;1.73;;;28.10;38.20;;;;;;4966345;28;20409;-78
2022/06/25 12:18:39;;;;;;;6.88;1.70;;;27.90;38.30;;;;;;4965168;28;20093;-79
2022/06/25 12:21:06;;;;;;;6.93;2.03;;;27.80;38.10;;;;;;4961792;28;20039;-79
2022/06/25 12:23:58;;;;;;;4.28;1.55;;;27.60;38.40;;;;;;4940132;28;20397;-79
2022/06/25 12:26:34;;;;;;;4.70;1.80;;;27.50;38.50;;;;;;4978333;28;20082;-80
2022/06/25 12:29:10;;;;;;;5.47;2.03;;;27.50;38.60;;;;;;4949311;28;20527;-78
2022/06/25 12:31:36;;;;;;;5.65;1.42;;;27.40;38.50;;;;;;4954571;28;20066;-78
2022/06/25 12:34:04;;;;;;;5.90;1.30;;;27.50;38.60;;;;;;4958156;28;20114;-78
2022/06/25 12:36:30;;;;;;;2.78;1.33;;;27.90;38.40;;;;;;4982622;28;20508;-80
2022/06/25 12:38:55;;;;;;;8.18;1.85;;;28.20;38.00;;;;;;4933208;28;20027;-79
2022/06/25 12:41:41;;;;;;;2.80;0.95;;;28.40;37.60;;;;;;4961442;28;20038;-79
2022/06/25 12:44:12;;;;;;;3.28;1.60;;;28.40;37.50;;;;;;4965734;28;20031;-78
2022/06/25 12:46:38;;;;;;;5.35;1.67;;;28.20;37.50;;;;;;4957350;28;20082;-79
2022/06/25 12:49:04;;;;;;;5.10;1.50;;;28.00;37.70;;;;;;4954191;28;20027;-78
2022/06/25 12:51:30;;;;;;;7.90;1.85;;;27.80;37.80;;;;;;4959467;28;20130;-77
2022/06/25 12:53:56;;;;;;;3.42;1.40;;;27.70;38.00;;;;;;4955738;28;20119;-76
2022/06/25 12:56:22;;;;;;;7.55;2.28;;;27.50;38.10;;;;;;4941659;28;20098;-77
2022/06/25 12:58:48;;;;;;;4.30;1.33;;;27.30;38.50;;;;;;4966055;28;20771;-78
2022/06/25 13:01:23;;;;;;;6.20;1.65;;;27.10;38.50;;;;;;4948721;28;20710;-75
2022/06/25 13:03:49;;;;;;;2.33;1.50;;;27.00;38.60;;;;;;4966313;28;20031;-77
2022/06/25 13:06:15;;;;;;;3.40;1.65;;;27.00;38.80;;;;;;4970608;28;20031;-78
2022/06/25 13:08:41;;;;;;;6.18;1.35;;;27.00;38.80;;;;;;4963731;28;20031;-77